createdAt,value
2022-09-26T00:04:23.654Z,67.00
2022-09-26T00:09:29.239Z,70.22
2022-09-26T00:14:35.223Z,71.15
2022-09-26T00:19:38.571Z,67.78
2022-09-26T00:24:41.862Z,71.30
2022-09-26T00:29:47.128Z,72.80
2022-09-26T00:34:51.123Z,71.93
2022-09-26T00:39:54.652Z,70.65
2022-09-26T00:45:02.805Z,68.38
2022-09-26T00:50:13.450Z,67.38
2022-09-26T00:55:20.780Z,58.45
2022-09-26T01:00:25.549Z,61.63
2022-09-26T01:05:29.629Z,65.72
2022-09-26T01:10:35.422Z,56.90
2022-09-26T01:15:40.162Z,60.70
2022-09-26T01:20:53.029Z,53.75
2022-09-26T01:26:30.227Z,56.08
2022-09-26T01:31:43.756Z,56.35
2022-09-26T01:37:03.320Z,58.97
2022-09-26T01:42:18.091Z,56.08
2022-09-26T01:47:28.761Z,57.88
2022-09-26T01:52:38.142Z,55.23
2022-09-26T01:57:48.602Z,57.00
2022-09-26T02:02:57.237Z,57.17
2022-09-26T02:08:06.552Z,54.42
2022-09-26T02:13:16.041Z,55.25
2022-09-26T02:18:24.883Z,55.05
2022-09-26T02:23:28.302Z,55.17
2022-09-26T02:28:32.066Z,59.53
2022-09-26T02:33:38.169Z,49.65
2022-09-26T02:38:42.120Z,48.55
2022-09-26T02:44:26.318Z,50.95
2022-09-26T02:49:50.912Z,48.38
2022-09-26T02:55:04.152Z,51.83
2022-09-26T03:00:12.089Z,53.03
2022-09-26T03:05:21.999Z,49.58
2022-09-26T03:10:28.457Z,46.77
2022-09-26T03:15:35.186Z,48.38
2022-09-26T03:20:40.942Z,47.42
2022-09-26T03:25:45.000Z,48.45
2022-09-26T03:30:50.995Z,49.17
2022-09-26T03:36:07.517Z,43.67
2022-09-26T03:41:12.304Z,45.43
2022-09-26T03:46:21.145Z,49.15
2022-09-26T03:51:26.637Z,48.83
2022-09-26T03:56:30.307Z,47.80
2022-09-26T04:01:34.110Z,46.58
2022-09-26T04:06:39.427Z,58.72
2022-09-26T04:11:43.256Z,57.03
2022-09-26T04:16:47.143Z,52.80
2022-09-26T04:22:08.366Z,55.90
2022-09-26T04:27:12.299Z,55.38
2022-09-26T04:32:15.985Z,61.28
2022-09-26T04:37:38.203Z,57.65
2022-09-26T04:42:42.732Z,59.97
2022-09-26T04:47:46.931Z,63.53
2022-09-26T04:53:05.327Z,67.95
2022-09-26T04:58:10.492Z,64.30
2022-09-26T05:03:14.758Z,68.47
2022-09-26T05:08:19.792Z,62.78
2022-09-26T05:13:24.074Z,68.80
2022-09-26T05:18:28.201Z,61.97
2022-09-26T05:23:50.688Z,59.78
2022-09-26T05:28:56.484Z,65.53
2022-09-26T05:34:05.786Z,52.92
2022-09-26T05:39:31.444Z,57.78
2022-09-26T05:44:35.076Z,58.05
2022-09-26T05:49:40.437Z,60.25
2022-09-26T05:54:48.735Z,63.05
2022-09-26T06:00:14.284Z,59.25
2022-09-26T06:05:23.733Z,63.55
2022-09-26T06:10:50.525Z,59.17
2022-09-26T06:15:55.153Z,58.70
2022-09-26T06:20:58.862Z,60.75
2022-09-26T06:26:08.527Z,55.55
2022-09-26T06:31:13.000Z,59.05
2022-09-26T06:36:35.988Z,54.58
2022-09-26T06:41:40.766Z,53.95
2022-09-26T06:47:02.540Z,53.15
2022-09-26T06:52:12.065Z,50.83
2022-09-26T06:57:17.773Z,54.88
2022-09-26T07:02:21.594Z,51.85
2022-09-26T07:08:03.958Z,52.08
2022-09-26T07:13:11.111Z,53.10
2022-09-26T07:18:14.936Z,54.40
2022-09-26T07:23:36.602Z,56.03
2022-09-26T07:28:41.491Z,57.63
2022-09-26T07:33:44.972Z,51.72
2022-09-26T07:38:49.589Z,47.60
2022-09-26T07:49:38.939Z,49.50
2022-09-26T07:54:45.388Z,40.60
2022-09-26T08:00:06.057Z,42.45
2022-09-26T08:05:25.634Z,39.40
2022-09-26T08:10:29.565Z,38.78
2022-09-26T08:16:06.093Z,40.88
2022-09-26T08:21:14.358Z,41.97
2022-09-26T08:26:23.937Z,43.15
2022-09-26T08:31:35.229Z,40.45
2022-09-26T08:36:38.922Z,38.80
2022-09-26T08:42:28.832Z,34.40
2022-09-26T08:48:08.138Z,36.53
2022-09-26T08:53:23.758Z,34.50
2022-09-26T08:58:38.742Z,31.83
2022-09-26T09:03:52.752Z,38.50
2022-09-26T09:08:58.262Z,36.55
2022-09-26T09:14:24.372Z,40.72
2022-09-26T09:19:48.938Z,30.35
2022-09-26T09:25:24.756Z,43.58
2022-09-26T09:30:37.098Z,33.60
2022-09-26T09:36:11.893Z,33.30
2022-09-26T09:41:52.164Z,34.25
2022-09-26T09:46:57.545Z,30.52
2022-09-26T09:52:15.143Z,30.05
2022-09-26T09:57:42.668Z,28.08
2022-09-26T10:02:53.217Z,24.45
2022-09-26T10:08:22.610Z,23.33
2022-09-26T10:13:46.277Z,19.17
2022-09-26T10:19:07.217Z,24.38
2022-09-26T10:24:27.988Z,23.10
2022-09-26T10:29:38.411Z,21.73
2022-09-26T10:34:42.436Z,20.17
2022-09-26T10:40:11.815Z,20.73
2022-09-26T10:45:20.432Z,21.15
2022-09-26T10:51:02.022Z,17.42
2022-09-26T10:56:26.394Z,17.65
2022-09-26T11:01:33.653Z,20.25
2022-09-26T11:06:44.049Z,15.63
2022-09-26T11:12:23.955Z,14.50
2022-09-26T11:17:47.397Z,13.57
2022-09-26T11:23:00.692Z,12.05
2022-09-26T11:28:12.712Z,9.15
2022-09-26T11:33:36.233Z,6.03
2022-09-26T11:38:59.464Z,6.30
2022-09-26T11:44:23.729Z,6.18
2022-09-26T11:50:09.206Z,5.35
2022-09-26T11:55:51.436Z,6.90
2022-09-26T12:01:01.614Z,6.25
2022-09-26T12:06:20.088Z,8.02
2022-09-26T12:11:34.106Z,6.13
2022-09-26T12:16:49.702Z,5.75
2022-09-26T12:22:19.179Z,5.97
2022-09-26T12:27:26.585Z,4.43
2022-09-26T12:32:56.689Z,4.63
2022-09-26T12:38:25.055Z,4.93
2022-09-26T12:43:49.031Z,5.40
2022-09-26T12:49:12.108Z,4.60
2022-09-26T12:54:45.941Z,9.10
2022-09-26T13:00:16.734Z,4.40
2022-09-26T13:06:08.373Z,4.65
2022-09-26T13:11:22.860Z,4.28
2022-09-26T13:16:38.625Z,5.70
2022-09-26T13:21:59.477Z,6.03
2022-09-26T13:27:13.345Z,5.43
2022-09-26T13:32:23.053Z,6.03
2022-09-26T13:37:39.173Z,6.20
2022-09-26T13:43:07.551Z,6.20
2022-09-26T13:48:42.994Z,7.90
2022-09-26T13:54:06.074Z,10.32
2022-09-26T13:59:30.766Z,7.38
2022-09-26T14:04:46.005Z,8.30
2022-09-26T14:09:59.100Z,8.55
2022-09-26T14:15:22.795Z,9.68
2022-09-26T14:20:29.823Z,9.73
2022-09-26T14:25:56.744Z,8.50
2022-09-26T14:31:12.460Z,10.80
2022-09-26T14:36:26.108Z,9.90
2022-09-26T14:41:34.719Z,11.40
2022-09-26T14:46:38.821Z,11.02
2022-09-26T14:51:49.638Z,11.77
2022-09-26T14:57:08.118Z,12.98
2022-09-26T15:02:21.605Z,21.27
2022-09-26T15:07:26.670Z,19.77
2022-09-26T15:12:39.969Z,23.05
2022-09-26T15:17:49.488Z,19.60
2022-09-26T15:22:57.337Z,18.85
2022-09-26T15:28:02.870Z,14.82
2022-09-26T15:33:07.501Z,13.52
2022-09-26T15:38:14.095Z,7.70
2022-09-26T15:43:21.525Z,8.65
2022-09-26T15:48:38.727Z,8.18
2022-09-26T15:53:46.809Z,7.95
2022-09-26T15:58:54.057Z,7.72
2022-09-26T16:03:59.655Z,8.10
2022-09-26T16:09:09.149Z,9.93
2022-09-26T16:14:34.283Z,9.73
2022-09-26T16:19:47.298Z,14.80
2022-09-26T16:24:52.301Z,12.00
2022-09-26T16:30:04.697Z,16.17
2022-09-26T16:35:19.756Z,7.47
2022-09-26T16:40:23.359Z,8.75
2022-09-26T16:45:28.441Z,12.82
2022-09-26T16:50:36.862Z,13.02
2022-09-26T16:55:47.300Z,15.82
2022-09-26T17:01:10.223Z,18.13
2022-09-26T17:06:43.015Z,56.95
2022-09-26T17:11:48.521Z,47.85
2022-09-26T17:16:55.505Z,45.53
2022-09-26T17:22:00.532Z,52.22
2022-09-26T17:27:07.140Z,189.40
2022-09-26T17:32:15.158Z,244.48
2022-09-26T17:37:22.094Z,124.25
2022-09-26T17:42:25.715Z,130.90
2022-09-26T17:47:31.786Z,134.10
2022-09-26T17:52:36.852Z,115.40
2022-09-26T17:57:41.832Z,102.38
2022-09-26T18:02:56.327Z,79.35
2022-09-26T18:08:05.593Z,78.47
2022-09-26T18:13:17.082Z,69.83
2022-09-26T18:18:42.209Z,68.28
2022-09-26T18:24:09.383Z,66.55
2022-09-26T18:29:15.543Z,63.83
2022-09-26T18:34:44.723Z,94.28
2022-09-26T18:40:03.866Z,104.57
2022-09-26T18:45:20.541Z,92.07
2022-09-26T18:50:36.355Z,90.28
2022-09-26T18:55:58.851Z,91.03
2022-09-26T19:01:15.349Z,78.82
2022-09-26T19:06:23.713Z,56.83
2022-09-26T19:11:28.495Z,57.55
2022-09-26T19:16:32.001Z,57.10
2022-09-26T19:21:39.403Z,55.20
2022-09-26T19:26:44.535Z,50.65
2022-09-26T19:31:48.007Z,70.13
2022-09-26T19:36:53.943Z,84.35
2022-09-26T19:41:57.575Z,73.68
2022-09-26T19:47:03.113Z,83.22
2022-09-26T19:52:16.240Z,65.18
2022-09-26T20:02:32.629Z,59.80
2022-09-26T20:07:36.264Z,51.95
2022-09-26T20:12:39.696Z,65.60
2022-09-26T20:17:46.686Z,41.28
2022-09-26T20:22:51.141Z,45.40
2022-09-26T20:27:55.963Z,48.45
2022-09-26T20:33:01.121Z,73.45
2022-09-26T20:38:10.263Z,37.13
2022-09-26T20:43:18.735Z,43.17
2022-09-26T20:48:26.671Z,42.90
2022-09-26T20:53:36.773Z,47.03
2022-09-26T20:58:42.309Z,37.97
2022-09-26T21:03:49.926Z,35.60
2022-09-26T21:08:53.434Z,39.80
2022-09-26T21:13:59.872Z,45.67
2022-09-26T21:19:05.529Z,43.60
2022-09-26T21:24:18.070Z,46.63
2022-09-26T21:29:31.472Z,31.52
2022-09-26T21:34:38.905Z,30.88
2022-09-26T21:39:45.919Z,31.77
2022-09-26T21:44:54.910Z,31.92
2022-09-26T21:50:13.427Z,32.40
2022-09-26T21:55:29.782Z,31.17
2022-09-26T22:00:35.322Z,32.70
2022-09-26T22:05:41.853Z,34.08
2022-09-26T22:10:46.307Z,43.95
2022-09-26T22:15:52.742Z,52.92
2022-09-26T22:20:57.593Z,53.58
2022-09-26T22:26:01.304Z,52.33
2022-09-26T22:31:05.943Z,55.08
2022-09-26T22:36:11.062Z,58.78
2022-09-26T22:41:25.837Z,57.28
2022-09-26T22:46:34.300Z,56.67
2022-09-26T22:51:39.878Z,61.08
2022-09-26T22:56:43.335Z,66.05
2022-09-26T23:01:47.090Z,66.40
2022-09-26T23:06:52.883Z,65.13
2022-09-26T23:11:56.503Z,65.07
2022-09-26T23:16:59.917Z,69.18
2022-09-26T23:22:04.871Z,62.90
2022-09-26T23:27:08.649Z,61.25
2022-09-26T23:32:12.084Z,65.18
2022-09-26T23:37:16.743Z,64.82
2022-09-26T23:42:20.053Z,63.67
2022-09-26T23:47:23.440Z,61.53
2022-09-26T23:52:28.168Z,65.57
2022-09-26T23:57:31.464Z,62.58
